Time;durP1;ratioP1;P1;durP2;ratioP2;P2;SDS_P1;SDS_P2;PMS_P1;PMS_P2;Temp;Humidity;BMP_temperature;BMP_pressure;BME280_temperature;BME280_humidity;BME280_pressure;Samples;Min_cycle;Max_cycle;Signal;HPM_P1;HPM_P2
2023/12/05 00:00:54;;;;;;;64.03;28.35;;;;;;;-4.37;83.33;100652.84;4932747;28;20365;-73
2023/12/05 00:03:20;;;;;;;71.13;31.20;;;;;;;-4.35;83.48;100648.41;4932967;28;20501;-72
2023/12/05 00:05:47;;;;;;;71.68;29.33;;;;;;;-4.38;83.88;100635.25;4932748;28;20126;-73
2023/12/05 00:08:15;;;;;;;74.78;31.67;;;;;;;-4.38;83.36;100634.38;4933353;28;20055;-73
2023/12/05 00:10:42;;;;;;;74.60;30.92;;;;;;;-4.38;83.57;100623.78;4932261;28;20114;-74
2023/12/05 00:13:08;;;;;;;71.20;31.20;;;;;;;-4.35;83.63;100639.56;4933742;28;20457;-72
2023/12/05 00:15:35;;;;;;;76.45;33.08;;;;;;;-4.28;83.19;100631.41;4937422;28;20080;-71
2023/12/05 00:18:02;;;;;;;72.43;30.83;;;;;;;-4.14;82.86;100635.47;4938955;28;20434;-70
2023/12/05 00:20:28;;;;;;;70.10;30.33;;;;;;;-4.14;82.59;100633.69;4939147;28;20055;-71
2023/12/05 00:22:55;;;;;;;71.50;30.83;;;;;;;-4.20;82.56;100632.06;4938065;28;20056;-71
2023/12/05 00:25:21;;;;;;;71.88;29.05;;;;;;;-3.97;81.77;100627.88;4938405;28;20048;-69
2023/12/05 00:27:48;;;;;;;71.72;30.38;;;;;;;-4.10;82.28;100630.00;4938921;28;20055;-70
2023/12/05 00:30:14;;;;;;;72.45;31.17;;;;;;;-4.22;82.73;100625.09;4938262;28;20047;-69
2023/12/05 00:32:41;;;;;;;69.13;31.52;;;;;;;-4.23;82.71;100629.50;4938435;28;20106;-71
2023/12/05 00:35:08;;;;;;;71.65;31.73;;;;;;;-4.15;82.21;100626.66;4938282;28;20047;-70
2023/12/05 00:37:35;;;;;;;72.28;31.52;;;;;;;-4.16;82.33;100624.91;4938949;28;20051;-71
2023/12/05 00:40:02;;;;;;;69.97;29.42;;;;;;;-3.93;81.85;100627.72;4938429;28;20107;-70
2023/12/05 00:42:29;;;;;;;76.13;30.25;;;;;;;-4.00;82.03;100630.59;4938558;28;20051;-70
2023/12/05 00:44:55;;;;;;;73.32;31.50;;;;;;;-4.12;82.28;100631.84;4938929;28;20540;-69
2023/12/05 00:47:22;;;;;;;76.43;31.77;;;;;;;-4.06;81.87;100629.03;4937207;28;20127;-70
2023/12/05 00:49:49;;;;;;;76.32;31.10;;;;;;;-3.74;80.72;100625.38;4937668;28;20063;-71
2023/12/05 00:52:16;;;;;;;67.10;28.92;;;;;;;-3.80;81.15;100632.66;4938267;28;20052;-70
2023/12/05 00:54:42;;;;;;;68.57;30.67;;;;;;;-3.96;81.18;100630.47;4953685;28;20050;-70
2023/12/05 00:57:09;;;;;;;73.38;30.60;;;;;;;-3.81;81.11;100625.63;4957829;28;20047;-70
2023/12/05 00:59:35;;;;;;;69.03;30.67;;;;;;;-3.67;80.01;100623.41;4956420;28;20460;-69
2023/12/05 01:02:02;;;;;;;70.20;31.08;;;;;;;-3.45;79.29;100621.81;4957275;28;20119;-69
2023/12/05 01:04:29;;;;;;;75.35;30.75;;;;;;;-3.45;78.97;100620.94;4957292;28;20515;-70
2023/12/05 01:06:56;;;;;;;65.07;28.75;;;;;;;-3.46;79.77;100612.13;4957290;28;20492;-70
2023/12/05 01:09:22;;;;;;;67.93;30.67;;;;;;;-3.60;79.69;100620.53;4958256;28;20043;-70
2023/12/05 01:11:50;;;;;;;69.47;30.70;;;;;;;-3.80;80.33;100617.63;4960811;28;20051;-70
2023/12/05 01:14:17;;;;;;;69.70;31.58;;;;;;;-3.85;80.65;100626.63;4961880;28;20051;-71
2023/12/05 01:16:43;;;;;;;65.85;28.58;;;;;;;-3.92;81.44;100624.16;4961727;28;20106;-71
2023/12/05 01:19:10;;;;;;;77.35;31.45;;;;;;;-3.81;81.04;100615.00;4962631;28;20074;-70
2023/12/05 01:21:37;;;;;;;69.10;30.23;;;;;;;-3.73;80.63;100623.59;4961802;28;20101;-70
2023/12/05 01:24:04;;;;;;;64.35;28.58;;;;;;;-3.74;79.91;100619.22;4961148;28;20043;-70
2023/12/05 01:26:30;;;;;;;66.03;29.50;;;;;;;-3.61;80.27;100613.50;4960457;28;20062;-70
2023/12/05 01:28:57;;;;;;;70.68;28.80;;;;;;;-3.53;79.55;100610.56;4961406;28;20098;-70
2023/12/05 01:31:24;;;;;;;76.45;31.33;;;;;;;-3.66;80.00;100609.25;4960867;28;20047;-70
2023/12/05 01:33:51;;;;;;;63.55;29.23;;;;;;;-3.71;79.80;100606.72;4961896;28;20071;-70
2023/12/05 01:36:17;;;;;;;68.57;29.60;;;;;;;-3.88;81.01;100603.75;4959831;28;20058;-75
2023/12/05 01:38:44;;;;;;;77.32;30.88;;;;;;;-3.98;81.67;100605.84;4954760;28;20054;-73
2023/12/05 01:41:11;;;;;;;69.90;30.92;;;;;;;-3.88;81.58;100596.69;4956364;28;20126;-74
2023/12/05 01:43:37;;;;;;;69.75;30.95;;;;;;;-3.81;81.19;100602.63;4955756;28;20140;-75
2023/12/05 01:46:05;;;;;;;71.43;29.92;;;;;;;-3.68;80.46;100600.47;4955652;28;20496;-74
2023/12/05 01:48:33;;;;;;;63.13;29.63;;;;;;;-3.75;81.32;100594.50;4955092;28;20066;-73
2023/12/05 01:51:04;;;;;;;72.60;31.20;;;;;;;-3.70;80.81;100603.19;4955452;28;20508;-74
2023/12/05 01:53:31;;;;;;;65.32;31.23;;;;;;;-3.80;81.30;100600.84;4954960;28;20047;-74
2023/12/05 01:55:58;;;;;;;68.80;31.42;;;;;;;-3.93;81.25;100595.06;4955574;28;20059;-73
2023/12/05 01:58:25;;;;;;;69.32;30.25;;;;;;;-3.89;81.75;100597.56;4954641;28;20098;-73
2023/12/05 02:00:52;;;;;;;68.05;29.85;;;;;;;-3.68;80.45;100584.59;4955839;28;20459;-74
2023/12/05 02:03:19;;;;;;;69.32;32.20;;;;;;;-3.85;81.44;100586.91;4955352;28;20051;-73
2023/12/05 02:09:28;;;;;;;69.50;30.70;;;;;;;-3.98;82.11;100576.69;4973252;28;20130;-74
2023/12/05 02:11:55;;;;;;;68.88;30.50;;;;;;;-3.99;81.92;100576.72;4974189;28;20057;-74
2023/12/05 02:14:22;;;;;;;73.97;30.55;;;;;;;-4.08;82.39;100569.91;4974330;28;20046;-73
2023/12/05 02:17:01;;;;;;;76.50;31.33;;;;;;;-4.08;82.08;100572.56;4973803;28;20055;-73
2023/12/05 02:19:47;;;;;;;69.97;30.63;;;;;;;-3.95;81.76;100571.28;4974279;28;20109;-74
2023/12/05 02:22:52;;;;;;;70.55;29.92;;;;;;;-4.11;82.09;100567.38;4973619;28;20050;-72
2023/12/05 02:25:40;;;;;;;77.05;31.10;;;;;;;-4.09;82.00;100562.88;4973707;28;20487;-73
2023/12/05 02:28:07;;;;;;;74.60;31.52;;;;;;;-4.03;82.37;100557.41;4973434;28;20113;-73
2023/12/05 02:30:33;;;;;;;78.50;33.28;;;;;;;-4.16;82.70;100545.47;4973262;28;20047;-73
2023/12/05 02:33:00;;;;;;;72.63;31.90;;;;;;;-4.09;82.00;100549.63;4973514;28;20054;-74
2023/12/05 02:35:27;;;;;;;69.75;31.20;;;;;;;-3.99;82.70;100552.88;4973566;28;20130;-74
2023/12/05 02:37:54;;;;;;;71.00;31.08;;;;;;;-3.90;81.84;100542.84;4972068;28;20372;-74
2023/12/05 02:40:36;;;;;;;74.15;32.72;;;;;;;-3.81;80.93;100544.34;4973804;28;20514;-74
2023/12/05 02:43:08;;;;;;;66.25;30.95;;;;;;;-3.87;81.51;100542.78;4973514;28;20062;-74
2023/12/05 02:45:38;;;;;;;68.47;29.55;;;;;;;-3.70;80.71;100544.88;4973061;28;20090;-74
2023/12/05 02:48:09;;;;;;;68.40;30.98;;;;;;;-3.87;81.53;100547.22;4972831;28;20608;-74
2023/12/05 02:50:37;;;;;;;74.22;31.50;;;;;;;-3.58;80.56;100551.56;4973120;28;20042;-74
2023/12/05 02:53:03;;;;;;;72.60;30.55;;;;;;;-3.78;80.54;100546.03;4970835;28;20051;-74
2023/12/05 02:55:30;;;;;;;71.05;31.27;;;;;;;-3.88;81.39;100543.69;4953441;28;20098;-74
2023/12/05 02:57:57;;;;;;;66.38;30.48;;;;;;;-3.70;81.00;100549.28;4953822;28;20150;-74
2023/12/05 03:00:24;;;;;;;73.53;30.83;;;;;;;-3.66;80.47;100537.69;4953342;28;20122;-74
2023/12/05 03:02:51;;;;;;;69.75;30.70;;;;;;;-3.40;80.02;100532.38;4953394;28;20492;-74
2023/12/05 03:05:18;;;;;;;66.80;30.20;;;;;;;-3.49;79.25;100529.19;4953383;28;20114;-74
2023/12/05 03:07:45;;;;;;;80.22;32.65;;;;;;;-3.59;79.91;100525.97;4953254;28;20496;-73
2023/12/05 03:10:12;;;;;;;76.32;31.85;;;;;;;-3.81;81.46;100532.88;4953674;28;20051;-73
2023/12/05 03:12:38;;;;;;;66.72;29.63;;;;;;;-3.89;81.57;100525.16;4953898;28;20074;-74
2023/12/05 03:15:05;;;;;;;67.95;30.80;;;;;;;-3.85;81.54;100524.16;4953193;28;20066;-75
2023/12/05 03:17:32;;;;;;;66.45;30.10;;;;;;;-3.70;81.09;100522.78;4952980;28;20051;-74
2023/12/05 03:19:59;;;;;;;69.70;30.52;;;;;;;-3.78;81.45;100524.84;4953086;28;20504;-74
2023/12/05 03:22:26;;;;;;;69.43;30.48;;;;;;;-3.82;81.74;100520.53;4953547;28;20061;-75
2023/12/05 03:24:53;;;;;;;68.35;31.02;;;;;;;-3.64;81.08;100527.91;4953085;28;20184;-74
2023/12/05 03:27:20;;;;;;;72.93;33.10;;;;;;;-3.72;81.45;100522.84;4952808;28;20551;-73
2023/12/05 03:29:46;;;;;;;70.68;30.05;;;;;;;-3.84;81.84;100519.75;4951757;28;20055;-74
2023/12/05 03:32:13;;;;;;;72.43;31.52;;;;;;;-3.77;81.99;100526.56;4952755;28;20473;-73
2023/12/05 03:34:40;;;;;;;75.47;31.35;;;;;;;-3.78;81.54;100524.84;4954001;28;20496;-74
2023/12/05 03:37:06;;;;;;;69.57;28.73;;;;;;;-3.80;81.87;100521.34;4952877;28;20078;-74
2023/12/05 03:39:33;;;;;;;74.05;30.17;;;;;;;-3.79;81.93;100523.09;4953437;28;20106;-74
2023/12/05 03:41:59;;;;;;;71.85;31.33;;;;;;;-3.78;81.87;100525.72;4953051;28;20529;-73
2023/12/05 03:44:26;;;;;;;73.07;31.98;;;;;;;-3.73;81.85;100538.81;4952735;28;20504;-74
2023/12/05 03:46:53;;;;;;;69.90;31.25;;;;;;;-3.89;82.32;100538.41;4953158;28;20051;-72
2023/12/05 03:49:20;;;;;;;73.38;31.73;;;;;;;-3.69;81.77;100551.06;4952828;28;20102;-73
2023/12/05 03:51:47;;;;;;;69.53;29.95;;;;;;;-3.72;81.15;100545.81;4952878;28;20062;-73
2023/12/05 03:54:13;;;;;;;68.57;30.58;;;;;;;-3.62;81.24;100550.78;4956410;28;20047;-74
2023/12/05 03:56:40;;;;;;;72.93;31.20;;;;;;;-3.72;81.65;100546.69;4952807;28;20058;-74
2023/12/05 03:59:07;;;;;;;71.28;31.17;;;;;;;-3.85;82.46;100544.50;4951491;28;20476;-74
2023/12/05 04:01:34;;;;;;;73.60;32.08;;;;;;;-3.64;81.50;100541.16;4952028;28;20042;-74
2023/12/05 04:04:00;;;;;;;63.40;30.00;;;;;;;-3.71;81.75;100540.47;4950889;28;20051;-73
2023/12/05 04:06:27;;;;;;;74.40;31.77;;;;;;;-3.70;81.88;100544.00;4952492;28;20396;-74
2023/12/05 04:08:54;;;;;;;69.78;32.00;;;;;;;-3.89;82.62;100536.63;4952556;28;20055;-74
2023/12/05 04:11:30;;;;;;;70.22;33.50;;;;;;;-3.67;81.62;100538.59;4953623;28;20051;-73
2023/12/05 04:13:59;;;;;;;64.10;30.13;;;;;;;-3.84;82.84;100541.78;4952324;28;20059;-74
2023/12/05 04:16:26;;;;;;;69.10;31.13;;;;;;;-3.77;82.46;100537.19;4952383;28;20119;-74
2023/12/05 04:18:53;;;;;;;65.70;30.30;;;;;;;-3.85;82.44;100524.16;4952472;28;20047;-74
2023/12/05 04:21:20;;;;;;;74.90;30.60;;;;;;;-3.82;82.51;100533.78;4952477;28;20054;-73
2023/12/05 04:23:47;;;;;;;66.90;31.83;;;;;;;-3.70;82.00;100538.69;4952665;28;20122;-74
2023/12/05 04:26:18;;;;;;;70.07;31.55;;;;;;;-3.47;81.20;100535.28;4952316;28;20106;-74
2023/12/05 04:28:45;;;;;;;76.38;32.78;;;;;;;-3.59;81.26;100533.94;4951894;28;20102;-73
2023/12/05 04:31:13;;;;;;;68.43;31.20;;;;;;;-3.77;82.08;100537.19;4952669;28;20047;-73
2023/12/05 04:33:41;;;;;;;73.13;31.70;;;;;;;-3.80;82.06;100527.53;4952857;28;20039;-73
2023/12/05 04:36:08;;;;;;;69.70;31.88;;;;;;;-3.82;82.72;100532.00;4952478;28;20047;-74
2023/12/05 04:38:36;;;;;;;71.68;32.38;;;;;;;-3.81;83.16;100531.09;4952224;28;20078;-74
2023/12/05 04:41:03;;;;;;;71.20;31.27;;;;;;;-3.75;82.63;100530.03;4953079;28;20109;-74
2023/12/05 04:43:30;;;;;;;67.75;31.83;;;;;;;-3.75;82.55;100535.34;4952320;28;20496;-74
2023/12/05 04:45:57;;;;;;;67.80;31.05;;;;;;;-3.71;82.95;100527.22;4956370;28;20555;-74
2023/12/05 04:48:24;;;;;;;68.63;30.45;;;;;;;-3.57;81.70;100524.13;4955863;28;20113;-73
2023/12/05 04:50:51;;;;;;;69.30;31.65;;;;;;;-3.75;82.41;100530.03;4956077;28;20043;-72
2023/12/05 04:53:17;;;;;;;69.13;31.42;;;;;;;-3.64;82.72;100517.28;4951984;28;20527;-74
2023/12/05 04:55:44;;;;;;;71.43;31.00;;;;;;;-3.76;82.45;100526.53;4936622;28;20055;-73
2023/12/05 04:58:11;;;;;;;71.38;32.10;;;;;;;-3.65;82.52;100513.78;4937470;28;20102;-74
2023/12/05 05:00:38;;;;;;;73.72;32.50;;;;;;;-3.62;81.79;100518.97;4937203;28;20052;-74
2023/12/05 05:03:05;;;;;;;83.28;32.25;;;;;;;-3.64;82.04;100509.34;4937244;28;20039;-74
2023/12/05 05:05:31;;;;;;;65.22;30.92;;;;;;;-3.64;82.55;100512.00;4937232;28;20107;-74
2023/12/05 05:07:58;;;;;;;65.32;30.27;;;;;;;-3.69;82.22;100513.94;4937020;28;20130;-74
2023/12/05 05:10:25;;;;;;;65.68;30.67;;;;;;;-3.50;81.92;100520.38;4936996;28;20095;-74
2023/12/05 05:12:52;;;;;;;75.88;32.17;;;;;;;-3.37;80.69;100516.38;4936542;28;20465;-74
2023/12/05 05:15:19;;;;;;;74.15;32.35;;;;;;;-3.44;80.98;100506.88;4937240;28;20064;-74
2023/12/05 05:17:46;;;;;;;69.10;31.80;;;;;;;-3.52;81.54;100500.97;4937243;28;20055;-74
2023/12/05 05:20:13;;;;;;;72.00;31.60;;;;;;;-3.56;82.43;100502.00;4937285;28;20067;-73
2023/12/05 05:22:40;;;;;;;75.30;32.53;;;;;;;-3.49;81.40;100507.97;4937229;28;20051;-74
2023/12/05 05:25:08;;;;;;;76.57;32.83;;;;;;;-3.34;80.88;100500.34;4936826;28;20043;-74
2023/12/05 05:27:35;;;;;;;67.75;31.52;;;;;;;-3.42;80.99;100497.13;4936933;28;20054;-74
2023/12/05 05:30:02;;;;;;;70.75;30.90;;;;;;;-3.08;80.09;100499.41;4936757;28;20115;-74
2023/12/05 05:32:28;;;;;;;72.20;32.70;;;;;;;-3.42;81.11;100504.16;4936503;28;20044;-72
2023/12/05 05:34:55;;;;;;;70.68;33.33;;;;;;;-3.52;81.84;100514.22;4936871;28;20051;-74
2023/12/05 05:37:22;;;;;;;69.40;30.23;;;;;;;-3.43;81.67;100513.91;4936658;28;20043;-74
2023/12/05 05:39:49;;;;;;;73.70;30.90;;;;;;;-3.59;82.29;100510.06;4936612;28;20512;-73
2023/12/05 05:42:16;;;;;;;74.57;33.45;;;;;;;-3.66;82.14;100520.00;4936726;28;20051;-73
2023/12/05 05:44:44;;;;;;;73.10;33.20;;;;;;;-3.52;82.48;100522.19;4936874;28;20069;-72
2023/12/05 05:47:11;;;;;;;66.70;29.33;;;;;;;-3.50;82.18;100525.66;4936713;28;20050;-73
2023/12/05 05:49:39;;;;;;;72.00;32.47;;;;;;;-3.42;81.65;100520.97;4936390;28;20456;-73
2023/12/05 05:52:07;;;;;;;76.30;33.40;;;;;;;-3.25;81.66;100520.38;4936658;28;20493;-74
2023/12/05 05:54:33;;;;;;;73.25;32.22;;;;;;;-3.43;81.71;100537.78;4936369;28;20052;-75
2023/12/05 05:57:00;;;;;;;71.22;31.40;;;;;;;-3.43;82.43;100531.59;4935639;28;20052;-73
2023/12/05 05:59:27;;;;;;;69.55;32.22;;;;;;;-3.27;81.24;100529.31;4936057;28;20500;-73
2023/12/05 06:01:55;;;;;;;69.97;30.45;;;;;;;-3.36;81.06;100528.69;4936852;28;20076;-73
2023/12/05 06:04:22;;;;;;;68.72;31.30;;;;;;;-3.58;82.71;100523.25;4936128;28;20135;-74
2023/12/05 06:06:49;;;;;;;65.30;30.92;;;;;;;-3.51;82.31;100523.94;4936032;28;20079;-74
2023/12/05 06:09:15;;;;;;;72.55;32.40;;;;;;;-3.52;82.29;100522.19;4936007;28;20054;-72
2023/12/05 06:11:42;;;;;;;68.05;29.38;;;;;;;-3.48;82.30;100523.81;4935073;29;20079;-74
2023/12/05 06:14:10;;;;;;;67.75;29.30;;;;;;;-3.50;82.54;100522.16;4935960;28;20047;-74
2023/12/05 06:16:37;;;;;;;67.78;30.15;;;;;;;-3.39;81.99;100520.00;4934084;28;20123;-74
2023/12/05 06:19:03;;;;;;;72.72;31.02;;;;;;;-3.54;82.57;100517.84;4935467;28;20143;-75
2023/12/05 06:21:30;;;;;;;70.22;30.20;;;;;;;-3.50;82.48;100525.66;4934948;28;20122;-75
2023/12/05 06:23:57;;;;;;;65.50;30.85;;;;;;;-3.46;82.41;100521.97;4935100;28;20059;-74
2023/12/05 06:26:25;;;;;;;70.28;30.55;;;;;;;-3.48;82.47;100521.16;4935028;28;20077;-74
2023/12/05 06:28:52;;;;;;;79.40;32.53;;;;;;;-3.44;82.37;100525.44;4934752;28;20111;-74
2023/12/05 06:31:18;;;;;;;71.50;32.22;;;;;;;-3.45;82.41;100523.72;4935168;28;20564;-74
2023/12/05 06:33:45;;;;;;;71.78;31.60;;;;;;;-3.44;81.84;100525.44;4935146;28;20397;-74
2023/12/05 06:36:14;;;;;;;68.28;30.88;;;;;;;-3.42;82.06;100523.63;4935825;28;20464;-74
2023/12/05 06:38:40;;;;;;;69.65;32.00;;;;;;;-3.39;81.66;100528.81;4947245;28;20167;-73
2023/12/05 06:41:07;;;;;;;67.60;32.20;;;;;;;-3.36;81.81;100522.53;4953934;28;20047;-76
2023/12/05 06:43:34;;;;;;;64.13;30.35;;;;;;;-3.35;81.71;100519.81;4954500;28;20455;-74
2023/12/05 06:46:00;;;;;;;65.57;29.63;;;;;;;-3.40;82.29;100511.19;4954284;28;20067;-74
2023/12/05 06:48:27;;;;;;;62.95;29.85;;;;;;;-3.44;82.40;100522.78;4953842;28;20054;-74
2023/12/05 06:50:53;;;;;;;63.88;30.80;;;;;;;-3.31;81.97;100521.47;4954161;28;20051;-74
2023/12/05 06:53:20;;;;;;;66.57;30.02;;;;;;;-3.39;81.97;100520.84;4957910;28;20058;-75
2023/12/05 06:55:48;;;;;;;66.95;29.58;;;;;;;-3.41;81.89;100525.34;4953260;28;20051;-74
2023/12/05 06:58:14;;;;;;;61.80;29.08;;;;;;;-3.36;82.30;100523.41;4954005;28;20579;-72
2023/12/05 07:00:42;;;;;;;65.82;30.63;;;;;;;-3.31;81.59;100516.16;4955038;28;20059;-72
2023/12/05 07:03:08;;;;;;;65.40;29.23;;;;;;;-3.40;81.98;100516.47;4954697;28;20482;-73
2023/12/05 07:05:35;;;;;;;70.03;30.38;;;;;;;-3.39;82.35;100512.91;4953679;28;20389;-72
2023/12/05 07:08:02;;;;;;;67.55;29.50;;;;;;;-3.37;81.76;100511.06;4953657;28;20051;-73
2023/12/05 07:10:29;;;;;;;64.40;29.80;;;;;;;-3.42;81.98;100507.72;4954489;28;20046;-72
2023/12/05 07:12:58;;;;;;;60.95;26.80;;;;;;;-3.36;81.63;100510.13;4954577;28;20063;-74
2023/12/05 07:15:25;;;;;;;61.80;30.00;;;;;;;-3.36;82.08;100507.47;4954270;28;20053;-73
2023/12/05 07:17:52;;;;;;;70.57;31.17;;;;;;;-3.32;81.58;100511.78;4953985;28;20047;-73
2023/12/05 07:20:18;;;;;;;69.65;30.85;;;;;;;-3.33;81.65;100507.41;4954193;28;20070;-75
2023/12/05 07:22:45;;;;;;;61.03;29.33;;;;;;;-3.23;81.37;100509.69;4953481;28;20079;-71
2023/12/05 07:25:11;;;;;;;62.95;30.23;;;;;;;-3.08;81.22;100519.78;4954146;28;20121;-74
2023/12/05 07:27:39;;;;;;;60.78;29.77;;;;;;;-3.16;80.99;100516.53;4954578;28;20405;-73
2023/12/05 07:30:08;;;;;;;59.25;28.17;;;;;;;-3.05;80.34;100522.31;4953872;28;20047;-74
2023/12/05 07:32:34;;;;;;;63.75;29.27;;;;;;;-2.99;80.16;100508.84;4954138;28;20054;-74
2023/12/05 07:35:01;;;;;;;65.45;28.13;;;;;;;-3.22;81.33;100514.13;4953863;28;20047;-74
2023/12/05 07:37:28;;;;;;;61.75;28.55;;;;;;;-2.99;80.94;100526.56;4953382;28;20054;-73
2023/12/05 07:39:55;;;;;;;65.07;28.67;;;;;;;-2.96;80.22;100524.63;4953814;28;20086;-74
2023/12/05 07:42:22;;;;;;;60.20;28.98;;;;;;;-2.99;80.42;100532.72;4953438;28;20047;-73
2023/12/05 07:44:49;;;;;;;70.82;29.58;;;;;;;-2.79;80.07;100530.22;4954664;28;20055;-73
2023/12/05 07:47:15;;;;;;;66.97;31.40;;;;;;;-3.02;80.12;100532.84;4954522;28;20400;-72
2023/12/05 07:49:44;;;;;;;63.35;28.13;;;;;;;-2.82;79.54;100524.16;4953845;28;20054;-73
2023/12/05 07:52:10;;;;;;;57.42;29.58;;;;;;;-2.85;79.86;100529.59;4955274;28;20055;-73
2023/12/05 07:54:37;;;;;;;62.33;29.80;;;;;;;-2.97;80.51;100517.59;4938810;28;20044;-73
2023/12/05 07:57:05;;;;;;;64.60;29.55;;;;;;;-3.02;80.25;100522.22;4934968;28;20055;-72
2023/12/05 07:59:31;;;;;;;63.15;28.40;;;;;;;-2.99;80.63;100524.75;4935206;28;20071;-72
2023/12/05 08:01:59;;;;;;;67.00;31.77;;;;;;;-3.03;80.74;100529.31;4934698;28;20051;-74
2023/12/05 08:04:25;;;;;;;64.75;30.27;;;;;;;-2.92;80.63;100530.72;4935210;28;20067;-73
2023/12/05 08:06:53;;;;;;;68.53;29.98;;;;;;;-2.67;79.41;100533.38;4934866;28;20585;-73
2023/12/05 08:09:19;;;;;;;61.17;28.98;;;;;;;-2.57;78.13;100525.00;4934990;28;20520;-74
2023/12/05 08:11:46;;;;;;;65.20;29.88;;;;;;;-2.86;79.76;100531.38;4934743;28;20413;-73
2023/12/05 08:14:13;;;;;;;66.47;29.80;;;;;;;-2.85;80.50;100525.16;4934829;28;20047;-74
2023/12/05 08:16:41;;;;;;;63.33;30.20;;;;;;;-3.03;80.66;100531.13;4932794;29;20047;-73
2023/12/05 08:19:08;;;;;;;69.93;31.73;;;;;;;-2.75;79.41;100530.97;4934519;28;20051;-74
2023/12/05 08:21:35;;;;;;;60.55;29.00;;;;;;;-2.42;78.24;100528.84;4934368;28;20055;-73
2023/12/05 08:24:02;;;;;;;62.75;28.05;;;;;;;-2.41;78.04;100530.56;4933591;28;20051;-73
2023/12/05 08:26:29;;;;;;;61.38;29.50;;;;;;;-2.43;78.44;100524.47;4933723;28;20500;-74
2023/12/05 08:28:56;;;;;;;73.25;32.17;;;;;;;-2.41;77.83;100527.91;4934669;28;20058;-74
2023/12/05 08:31:23;;;;;;;66.60;30.65;;;;;;;-2.49;78.12;100522.91;4934333;28;20390;-72
2023/12/05 08:33:49;;;;;;;64.97;29.55;;;;;;;-2.49;78.58;100522.03;4934584;28;20052;-73
2023/12/05 08:36:16;;;;;;;60.78;29.08;;;;;;;-2.49;78.83;100537.97;4935430;28;20047;-72
2023/12/05 08:38:43;;;;;;;68.55;30.33;;;;;;;-2.50;78.79;100523.81;4935149;28;20052;-73
2023/12/05 08:41:20;;;;;;;70.35;32.08;;;;;;;-2.37;78.37;100536.66;4935207;28;20061;-73
2023/12/05 08:43:47;;;;;;;68.20;29.98;;;;;;;-2.44;78.42;100531.56;4932536;28;20106;-73
2023/12/05 08:46:15;;;;;;;59.72;28.80;;;;;;;-2.46;77.87;100543.19;4934000;28;20047;-72
2023/12/05 08:48:41;;;;;;;64.32;29.52;;;;;;;-2.33;77.98;100532.94;4932361;29;20051;-73
2023/12/05 08:51:08;;;;;;;70.43;31.52;;;;;;;-2.47;78.33;100531.69;4934224;28;20052;-73
2023/12/05 08:53:35;;;;;;;66.55;30.30;;;;;;;-2.63;78.92;100537.63;4941148;28;20047;-73
2023/12/05 08:56:04;;;;;;;63.17;29.90;;;;;;;-2.48;79.36;100534.41;4953558;28;20480;-73
2023/12/05 08:58:30;;;;;;;63.78;29.90;;;;;;;-2.63;79.88;100545.59;4953152;28;20153;-73
2023/12/05 09:00:57;;;;;;;64.32;30.10;;;;;;;-2.35;79.17;100535.66;4953557;28;20074;-74
2023/12/05 09:03:23;;;;;;;63.58;29.77;;;;;;;-2.19;77.87;100536.81;4953628;28;20146;-74
2023/12/05 09:05:50;;;;;;;69.35;30.15;;;;;;;-2.39;78.96;100542.03;4953562;28;20067;-74
2023/12/05 09:08:18;;;;;;;62.63;29.33;;;;;;;-2.27;78.38;100538.03;4953233;28;20044;-74
2023/12/05 09:10:45;;;;;;;64.95;29.50;;;;;;;-1.99;77.23;100546.66;4953228;28;20077;-72
2023/12/05 09:13:14;;;;;;;61.72;30.25;;;;;;;-2.35;78.85;100533.00;4953647;28;20103;-73
2023/12/05 09:15:41;;;;;;;64.72;29.40;;;;;;;-2.05;77.76;100543.38;4953606;28;20087;-73
2023/12/05 09:18:07;;;;;;;60.72;29.85;;;;;;;-2.11;77.29;100539.19;4954064;28;20094;-74
2023/12/05 09:20:34;;;;;;;64.32;29.50;;;;;;;-2.02;77.20;100543.25;4954802;28;20051;-73
2023/12/05 09:23:00;;;;;;;67.43;29.27;;;;;;;-2.25;78.01;100537.03;4954856;28;20051;-73
2023/12/05 09:25:27;;;;;;;58.75;28.77;;;;;;;-1.93;76.67;100542.88;4954565;28;20047;-73
2023/12/05 09:27:54;;;;;;;57.25;29.00;;;;;;;-2.03;77.28;100538.84;4954305;28;20523;-74
2023/12/05 09:30:20;;;;;;;60.03;28.10;;;;;;;-1.66;75.71;100544.41;4954650;28;20051;-73
2023/12/05 09:32:47;;;;;;;59.20;28.15;;;;;;;-1.55;75.20;100532.50;4957999;28;20051;-74
2023/12/05 09:35:14;;;;;;;53.92;26.70;;;;;;;-1.47;74.80;100546.31;4957997;28;20074;-72
2023/12/05 09:37:41;;;;;;;57.17;27.23;;;;;;;-1.36;74.39;100539.66;4958371;28;20059;-73
2023/12/05 09:40:08;;;;;;;57.78;27.73;;;;;;;-1.62;75.46;100535.41;4956921;28;20414;-74
2023/12/05 09:42:38;;;;;;;56.90;27.05;;;;;;;-1.36;74.64;100525.50;4956999;28;20082;-73
2023/12/05 09:45:08;;;;;;;54.80;27.35;;;;;;;-1.26;74.05;100523.28;4956615;28;20120;-74
2023/12/05 09:47:35;;;;;;;49.42;25.95;;;;;;;-1.24;73.52;100527.63;4956368;28;20107;-73
2023/12/05 09:50:03;;;;;;;52.40;26.45;;;;;;;-1.16;73.51;100528.16;4955730;28;20054;-73
2023/12/05 09:52:31;;;;;;;52.33;26.55;;;;;;;-1.35;74.66;100524.56;4956611;28;20070;-73
2023/12/05 09:54:58;;;;;;;49.28;24.77;;;;;;;-1.86;76.48;100529.28;4939757;28;20071;-74
2023/12/05 09:57:27;;;;;;;49.53;25.77;;;;;;;-1.62;75.39;100519.44;4937605;28;20052;-74
2023/12/05 09:59:53;;;;;;;59.28;27.88;;;;;;;-1.41;74.17;100524.81;4938376;28;20432;-73
2023/12/05 10:02:24;;;;;;;51.05;25.52;;;;;;;-1.38;74.33;100514.03;4937253;28;20055;-74
2023/12/05 10:04:56;;;;;;;55.22;26.38;;;;;;;-1.58;75.27;100512.19;4937867;28;20058;-74
2023/12/05 10:07:27;;;;;;;64.50;26.65;;;;;;;-1.54;75.18;100513.81;4937456;28;20047;-74
2023/12/05 10:09:56;;;;;;;54.45;27.67;;;;;;;-1.70;76.64;100518.91;4936828;28;20052;-74
2023/12/05 10:12:22;;;;;;;48.85;24.33;;;;;;;-1.81;76.55;100521.13;4936743;28;20074;-74
2023/12/05 10:14:50;;;;;;;55.33;26.70;;;;;;;-1.43;75.67;100510.72;4937451;28;20066;-73
2023/12/05 10:17:17;;;;;;;51.47;25.15;;;;;;;-1.31;74.70;100515.50;4936815;28;20048;-74
2023/12/05 10:19:43;;;;;;;51.47;25.23;;;;;;;-1.35;74.38;100509.44;4936722;28;20059;-71
2023/12/05 10:22:10;;;;;;;54.92;26.00;;;;;;;-1.33;74.68;100506.72;4937360;28;20069;-74
2023/12/05 10:24:42;;;;;;;49.17;25.92;;;;;;;-1.47;75.47;100506.44;4937020;28;20052;-73
2023/12/05 10:27:10;;;;;;;;;;;;;;;-1.80;76.59;100495.41;4937465;28;20043;-73
2023/12/05 10:29:39;;;;;;;49.90;24.90;;;;;;;-1.37;74.76;100500.69;4935112;28;20006;-74
2023/12/05 10:32:07;;;;;;;53.20;25.08;;;;;;;-1.26;74.36;100488.72;4935590;28;20048;-74
2023/12/05 10:34:54;;;;;;;50.78;25.23;;;;;;;-1.17;74.00;100496.28;4936008;28;20142;-73
2023/12/05 10:37:22;;;;;;;51.70;24.88;;;;;;;-1.31;74.33;100494.22;4936352;28;20055;-72
2023/12/05 10:39:50;;;;;;;60.83;26.98;;;;;;;-1.17;74.65;100493.63;4934508;28;20052;-72
2023/12/05 10:42:18;;;;;;;49.92;24.58;;;;;;;-1.35;74.68;100477.53;4936784;28;20048;-72
2023/12/05 10:44:46;;;;;;;53.50;25.05;;;;;;;-1.51;76.36;100480.91;4936506;28;20055;-74
2023/12/05 10:47:13;;;;;;;48.38;25.38;;;;;;;-1.59;76.26;100481.22;4936586;28;20131;-72
2023/12/05 10:49:43;;;;;;;50.10;25.42;;;;;;;-1.14;74.25;100473.06;4936647;28;20047;-71
2023/12/05 10:52:14;;;;;;;53.63;24.67;;;;;;;-1.03;74.06;100473.44;4937359;28;20051;-73
2023/12/05 10:54:42;;;;;;;59.60;26.88;;;;;;;-1.31;74.41;100470.25;4935646;28;20059;-72
2023/12/05 10:57:11;;;;;;;48.15;24.90;;;;;;;-1.09;73.40;100467.56;4935246;28;20525;-72
2023/12/05 10:59:40;;;;;;;50.30;24.25;;;;;;;-1.25;74.04;100467.34;4935577;28;20095;-72
2023/12/05 11:02:13;;;;;;;52.22;26.63;;;;;;;-1.11;73.66;100464.06;4935956;28;20055;-74
2023/12/05 11:04:41;;;;;;;45.00;23.45;;;;;;;-1.28;74.01;100462.13;4936726;28;20051;-73
2023/12/05 11:07:10;;;;;;;55.08;27.23;;;;;;;-1.31;74.69;100472.94;4936461;28;20066;-74
2023/12/05 11:09:43;;;;;;;50.35;24.38;;;;;;;-1.51;75.99;100464.94;4935797;28;20047;-73
2023/12/05 11:12:12;;;;;;;51.70;25.48;;;;;;;-1.22;75.13;100466.34;4936844;28;20078;-73
2023/12/05 11:14:44;;;;;;;48.47;24.83;;;;;;;-0.96;74.05;100465.19;4936748;28;20050;-72